Time;durP1;ratioP1;P1;durP2;ratioP2;P2;SDS_P1;SDS_P2;PMS_P1;PMS_P2;Temp;Humidity;BMP_temperature;BMP_pressure;BME280_temperature;BME280_humidity;BME280_pressure;Samples;Min_cycle;Max_cycle;Signal;HPM_P1;HPM_P2
2022/03/15 00:08:40;;;;;;;15.10;8.27;;;;;;;6.42;85.28;101662.75;20981534;28;20052;-65
2022/03/15 00:18:42;;;;;;;16.08;7.70;;;;;;;6.29;86.57;101650.31;20981169;28;20086;-64
2022/03/15 00:28:44;;;;;;;14.88;8.13;;;;;;;6.24;86.61;101630.25;20980691;28;20391;-64
2022/03/15 00:38:45;;;;;;;13.43;7.65;;;;;;;6.38;85.28;101619.31;20979519;28;20053;-64
2022/03/15 00:48:47;;;;;;;12.68;6.72;;;;;;;6.41;85.09;101624.56;20979021;28;20051;-64
2022/03/15 00:58:48;;;;;;;13.85;6.07;;;;;;;6.36;84.65;101599.28;20978165;28;20123;-64
2022/03/15 01:08:50;;;;;;;15.25;5.88;;;;;;;6.32;85.56;101587.94;20976664;28;20037;-65
2022/03/15 01:18:51;;;;;;;13.50;6.75;;;;;;;6.26;86.38;101597.34;20975565;28;20531;-64
2022/03/15 01:28:53;;;;;;;11.55;6.10;;;;;;;6.11;87.09;101603.09;20977027;28;20126;-64
2022/03/15 01:38:55;;;;;;;14.88;6.80;;;;;;;6.01;88.16;101586.44;20974290;28;20059;-64
2022/03/15 01:48:56;;;;;;;14.10;6.40;;;;;;;6.10;87.00;101577.97;20973939;28;20110;-64
2022/03/15 01:58:59;;;;;;;12.98;5.68;;;;;;;6.09;88.04;101591.81;20974039;28;20048;-64
2022/03/15 02:09:12;;;;;;;11.80;5.90;;;;;;;6.04;88.02;101575.22;20972720;28;20062;-64
2022/03/15 02:19:14;;;;;;;12.23;6.35;;;;;;;6.03;88.92;101574.31;20971584;28;20048;-64
2022/03/15 02:29:16;;;;;;;14.52;7.07;;;;;;;6.03;88.95;101568.25;20970989;28;20044;-64
2022/03/15 02:39:17;;;;;;;14.60;7.18;;;;;;;5.98;89.15;101562.94;20971189;28;20120;-64
2022/03/15 02:49:19;;;;;;;13.77;7.65;;;;;;;5.91;89.59;101546.34;20971416;28;20055;-65
2022/03/15 02:59:21;;;;;;;12.77;6.88;;;;;;;5.97;89.17;101532.59;20971355;28;20493;-65
2022/03/15 03:09:23;;;;;;;11.60;6.50;;;;;;;6.05;87.91;101531.06;20968703;28;20075;-64
2022/03/15 03:19:24;;;;;;;15.65;6.22;;;;;;;6.01;88.46;101520.56;20969900;28;20139;-64
2022/03/15 03:29:28;;;;;;;11.25;6.22;;;;;;;5.99;88.67;101530.03;20968953;28;20053;-63
2022/03/15 03:39:30;;;;;;;9.15;5.15;;;;;;;6.04;88.21;101524.09;20977806;28;20052;-64
2022/03/15 03:49:33;;;;;;;10.63;5.15;;;;;;;6.07;87.86;101525.88;20983758;28;20485;-65
2022/03/15 03:59:34;;;;;;;9.90;5.80;;;;;;;6.08;88.36;101514.63;20982400;28;20102;-64
2022/03/15 04:09:35;;;;;;;15.27;5.95;;;;;;;6.05;88.83;101520.66;20981859;28;20113;-64
2022/03/15 04:19:37;;;;;;;12.07;5.47;;;;;;;5.93;91.32;101515.19;20980805;28;20048;-64
2022/03/15 04:29:38;;;;;;;12.75;5.32;;;;;;;5.82;91.97;101517.53;20980853;28;20101;-64
2022/03/15 04:39:40;;;;;;;12.43;5.75;;;;;;;5.72;91.56;101504.31;20979385;28;20635;-64
2022/03/15 04:49:42;;;;;;;10.02;5.40;;;;;;;5.58;93.73;101498.81;20976323;28;20070;-64
2022/03/15 04:59:43;;;;;;;11.18;5.82;;;;;;;5.54;93.55;101478.81;20978146;28;20048;-64
2022/03/15 05:20:06;;;;;;;16.05;6.35;;;;;;;5.38;95.22;101475.88;20974410;28;20045;-64
2022/03/15 05:30:09;;;;;;;12.52;6.18;;;;;;;5.39;95.11;101494.91;20975565;28;20044;-64
2022/03/15 05:40:11;;;;;;;11.70;5.82;;;;;;;5.44;94.33;101492.44;20974344;28;20052;-65
2022/03/15 05:50:13;;;;;;;14.55;6.45;;;;;;;5.34;94.12;101488.75;20974573;28;20044;-64
2022/03/15 06:00:15;;;;;;;11.88;6.00;;;;;;;5.35;94.27;101472.31;20973125;28;20090;-64
2022/03/15 06:10:20;;;;;;;12.55;5.80;;;;;;;5.35;94.73;101493.97;20972548;28;20435;-66
2022/03/15 06:20:22;;;;;;;12.10;6.20;;;;;;;5.53;93.98;101500.44;20970559;28;20045;-65
2022/03/15 06:30:24;;;;;;;12.43;6.20;;;;;;;5.64;93.75;101499.81;20972118;28;20044;-64
2022/03/15 06:40:26;;;;;;;12.35;5.63;;;;;;;5.81;92.83;101496.72;20971811;28;20041;-64
2022/03/15 06:50:28;;;;;;;12.25;6.13;;;;;;;5.91;92.59;101490.88;20971904;28;20036;-64
2022/03/15 07:00:30;;;;;;;11.38;5.63;;;;;;;6.12;91.26;101490.44;20969650;28;20044;-64
2022/03/15 07:10:32;;;;;;;10.55;6.80;;;;;;;6.18;90.28;101451.59;20974351;28;20390;-65
2022/03/15 07:20:34;;;;;;;12.52;7.43;;;;;;;6.32;89.97;101447.50;20985343;28;20053;-65
2022/03/15 07:30:36;;;;;;;13.18;7.20;;;;;;;6.49;87.52;101454.75;20983777;28;20141;-64
2022/03/15 07:40:39;;;;;;;13.00;7.18;;;;;;;6.67;86.67;101448.13;20982170;28;20049;-65
2022/03/15 07:50:41;;;;;;;13.85;6.97;;;;;;;6.58;86.47;101436.69;20983175;28;20055;-65
2022/03/15 08:00:42;;;;;;;13.27;6.70;;;;;;;6.49;89.46;101433.94;20979695;28;20094;-65
2022/03/15 08:10:44;;;;;;;15.13;6.72;;;;;;;6.69;89.10;101423.00;20974040;28;20405;-64
2022/03/15 08:20:45;;;;;;;17.48;6.53;;;;;;;6.88;92.33;101433.72;20974788;28;20093;-65
2022/03/15 08:30:47;;;;;;;14.07;6.45;;;;;;;7.03;93.01;101423.53;20975429;28;20409;-64
2022/03/15 08:40:49;;;;;;;12.80;7.00;;;;;;;7.23;93.43;101418.59;20975318;28;20059;-65
2022/03/15 08:50:51;;;;;;;11.68;6.50;;;;;;;7.20;94.96;101408.16;20971496;28;20044;-65
2022/03/15 09:00:53;;;;;;;14.32;7.55;;;;;;;7.22;95.74;101398.63;20973697;28;20047;-65
2022/03/15 09:10:55;;;;;;;18.45;7.82;;;;;;;7.56;98.43;101393.84;20973328;28;20052;-65
2022/03/15 09:20:56;;;;;;;15.48;7.63;;;;;;;7.60;98.58;101377.41;20973739;28;20049;-64
2022/03/15 09:30:58;;;;;;;16.50;8.00;;;;;;;7.39;100.00;101338.94;20972036;28;20691;-65
2022/03/15 09:41:03;;;;;;;15.13;8.13;;;;;;;7.55;100.00;101329.56;20973035;28;20466;-64
2022/03/15 09:51:05;;;;;;;15.10;8.98;;;;;;;7.40;100.00;101294.66;20969932;28;20464;-65
2022/03/15 10:01:13;;;;;;;14.95;8.75;;;;;;;7.46;100.00;101307.75;20969943;28;20044;-65
2022/03/15 10:11:18;;;;;;;14.43;8.82;;;;;;;7.34;100.00;101293.72;20970471;28;20044;-64
2022/03/15 10:21:21;;;;;;;17.52;8.68;;;;;;;7.37;100.00;101268.56;20970415;28;20518;-64
2022/03/15 10:31:24;;;;;;;16.77;9.52;;;;;;;7.29;100.00;101248.53;20966298;28;20044;-64
2022/03/15 10:41:25;;;;;;;15.13;8.90;;;;;;;7.30;100.00;101217.28;20968527;28;20036;-65
2022/03/15 10:51:28;;;;;;;21.60;12.75;;;;;;;7.29;100.00;101199.91;20983009;28;20060;-65
2022/03/15 11:01:36;;;;;;;19.90;10.57;;;;;;;7.29;100.00;101205.09;20983904;28;20056;-65
2022/03/15 11:11:38;;;;;;;20.55;12.10;;;;;;;7.42;100.00;101188.72;20982552;28;20052;-65
2022/03/15 11:21:40;;;;;;;22.30;11.18;;;;;;;7.70;100.00;101145.53;20983129;28;20048;-65
2022/03/15 11:31:44;;;;;;;17.40;10.18;;;;;;;7.91;100.00;101125.72;20982710;28;20056;-66
2022/03/15 11:41:46;;;;;;;22.57;10.53;;;;;;;8.27;98.71;101118.97;20981699;28;20051;-66
2022/03/15 11:52:05;;;;;;;20.60;8.68;;;;;;;8.16;98.34;101111.09;20979054;28;20105;-66
2022/03/15 12:02:06;;;;;;;19.02;9.90;;;;;;;8.20;100.00;101071.13;20977437;28;20056;-65
2022/03/15 12:12:10;;;;;;;21.77;10.10;;;;;;;8.24;100.00;101078.09;20979464;28;20055;-65
2022/03/15 12:22:23;;;;;;;18.98;10.68;;;;;;;8.67;100.00;101045.22;21050865;28;20051;-65
2022/03/15 12:32:26;;;;;;;14.07;8.38;;;;;;;8.86;99.10;101022.66;21037919;28;20048;-65
2022/03/15 12:42:28;;;;;;;17.30;9.20;;;;;;;9.04;98.51;100992.16;20977175;28;20045;-65
2022/03/15 12:52:51;;;;;;;17.65;9.77;;;;;;;9.32;95.30;100959.91;20974167;28;20055;-64
2022/03/15 13:02:54;;;;;;;15.65;8.27;;;;;;;9.73;96.58;100941.53;20974476;28;20037;-64
2022/03/15 13:12:56;;;;;;;14.23;7.30;;;;;;;10.07;88.22;100937.91;20972757;28;20098;-64
2022/03/15 13:23:03;;;;;;;13.57;7.03;;;;;;;10.20;92.23;100910.75;20972914;28;20131;-64
2022/03/15 13:33:05;;;;;;;12.90;7.70;;;;;;;10.24;94.82;100891.59;20969346;28;20048;-65
2022/03/15 13:43:10;;;;;;;20.05;7.95;;;;;;;10.07;92.96;100903.88;20972076;28;20106;-65
2022/03/15 13:53:18;;;;;;;14.77;8.57;;;;;;;9.79;96.45;100893.56;20970718;28;20094;-64
2022/03/15 14:03:27;;;;;;;18.40;9.35;;;;;;;9.43;99.80;100908.47;20969452;28;20053;-64
2022/03/15 14:13:32;;;;;;;16.10;9.70;;;;;;;9.16;100.00;100932.09;20968830;28;20486;-65
2022/03/15 14:23:34;;;;;;;15.10;9.65;;;;;;;8.79;100.00;100926.88;20969441;28;20105;-65
2022/03/15 14:33:35;;;;;;;18.80;10.25;;;;;;;8.54;100.00;100939.06;20967436;28;20052;-63
2022/03/15 14:43:37;;;;;;;21.48;11.45;;;;;;;8.51;100.00;100936.44;20967625;28;20098;-63
2022/03/15 14:53:39;;;;;;;21.60;11.25;;;;;;;8.45;100.00;100915.56;20968332;28;20056;-64
2022/03/15 15:03:40;;;;;;;22.05;13.55;;;;;;;8.57;100.00;100940.78;20967224;28;20045;-63
2022/03/15 15:13:42;;;;;;;21.75;13.48;;;;;;;8.34;100.00;100927.69;20967088;28;20127;-63
2022/03/15 15:23:48;;;;;;;;;;;;;;;8.31;100.00;100920.72;20967357;28;20075;-64
2022/03/15 15:33:50;;;;;;;25.05;14.25;;;;;;;8.27;100.00;100920.69;20973067;28;19974;-64
2022/03/15 15:43:51;;;;;;;29.70;20.65;;;;;;;8.25;100.00;100938.97;20978171;28;20060;-64
2022/03/15 15:53:53;;;;;;;27.90;17.17;;;;;;;8.18;100.00;100948.50;20979204;28;20048;-64
2022/03/15 16:03:54;;;;;;;26.58;16.40;;;;;;;8.10;100.00;100946.75;20979087;28;20547;-64
2022/03/15 16:13:56;;;;;;;23.90;14.90;;;;;;;8.17;100.00;100940.69;20979656;28;20048;-64
2022/03/15 16:23:59;;;;;;;35.67;20.33;;;;;;;8.21;100.00;100948.50;20979859;28;20078;-64
2022/03/15 16:34:00;;;;;;;27.48;17.77;;;;;;;8.19;100.00;100949.38;20976869;28;20549;-63
2022/03/15 16:44:04;;;;;;;31.67;19.98;;;;;;;8.15;100.00;100961.56;20976084;28;20048;-64
2022/03/15 16:54:05;;;;;;;34.90;19.67;;;;;;;8.00;100.00;100958.00;20975765;28;20045;-65
2022/03/15 17:14:29;;;;;;;29.70;20.67;;;;;;;8.12;100.00;100952.84;20973837;28;20090;-64
2022/03/15 17:24:32;;;;;;;27.63;19.10;;;;;;;8.12;100.00;100973.69;20974393;28;20489;-64
2022/03/15 17:34:39;;;;;;;35.40;22.08;;;;;;;8.14;100.00;100961.53;20972065;28;20101;-64
2022/03/15 17:44:43;;;;;;;32.83;22.05;;;;;;;8.15;100.00;100968.50;20971227;28;20052;-63
2022/03/15 17:54:47;;;;;;;39.83;24.80;;;;;;;8.09;100.00;100976.28;20971241;28;20048;-63
2022/03/15 18:05:14;;;;;;;35.47;23.77;;;;;;;7.91;100.00;101016.22;20946373;28;21056;-64
2022/03/15 18:15:18;;;;;;;52.17;34.22;;;;;;;7.80;100.00;101023.09;20948183;28;20056;-63
2022/03/15 18:25:20;;;;;;;35.13;25.10;;;;;;;7.69;100.00;101044.75;20948489;28;20467;-63
2022/03/15 18:35:23;;;;;;;40.83;27.98;;;;;;;7.40;100.00;101072.34;20947325;28;20041;-64
2022/03/15 18:45:25;;;;;;;45.00;29.58;;;;;;;7.31;100.00;101091.38;20947395;28;20058;-64
2022/03/15 18:55:27;;;;;;;66.10;44.33;;;;;;;7.23;100.00;101106.03;20946551;28;20417;-66
2022/03/15 19:05:29;;;;;;;41.90;28.77;;;;;;;7.17;100.00;101091.25;20949054;28;20106;-65
2022/03/15 19:15:34;;;;;;;45.60;29.88;;;;;;;7.24;100.00;101094.78;20961834;28;20064;-63
2022/03/15 19:25:37;;;;;;;44.00;29.45;;;;;;;7.42;100.00;101097.53;20959463;28;20484;-64
2022/03/15 19:35:40;;;;;;;54.93;34.90;;;;;;;7.36;100.00;101136.56;20957493;28;20207;-65
2022/03/15 19:45:42;;;;;;;43.63;28.73;;;;;;;7.03;100.00;101136.22;20959983;28;20080;-65
2022/03/15 19:55:43;;;;;;;49.88;36.45;;;;;;;6.74;100.00;101144.59;20958718;28;20599;-64
2022/03/15 20:05:49;;;;;;;52.65;32.85;;;;;;;6.69;100.00;101157.53;20958123;28;20508;-65
2022/03/15 20:15:52;;;;;;;56.70;34.45;;;;;;;6.61;100.00;101159.19;20956847;28;20059;-64
2022/03/15 20:25:53;;;;;;;60.97;35.88;;;;;;;6.63;100.00;101172.22;20955791;28;20044;-64
2022/03/15 20:35:58;;;;;;;69.03;37.13;;;;;;;6.65;100.00;101181.78;20956629;28;20568;-65
2022/03/15 20:46:00;;;;;;;66.33;36.73;;;;;;;6.69;100.00;101180.09;20955856;28;20136;-65
2022/03/15 20:56:08;;;;;;;78.18;39.38;;;;;;;6.73;100.00;101191.44;20955126;28;20061;-65
2022/03/15 21:06:10;;;;;;;68.68;37.45;;;;;;;6.79;100.00;101205.38;20953526;28;20052;-66
2022/03/15 21:16:12;;;;;;;63.30;35.50;;;;;;;6.75;100.00;101218.34;20952334;28;20048;-65
2022/03/15 21:26:17;;;;;;;70.18;36.47;;;;;;;6.81;100.00;101213.22;20970522;28;20033;-65
2022/03/15 21:36:18;;;;;;;;;;;;;;;6.89;100.00;101221.97;20972436;28;20230;-67
2022/03/15 21:46:21;;;;;;;73.13;36.33;;;;;;;6.89;100.00;101228.06;20971897;28;20036;-66
2022/03/15 21:56:27;;;;;;;72.35;35.25;;;;;;;6.66;100.00;101224.31;20968763;28;20059;-66
2022/03/15 22:06:28;;;;;;;74.57;35.38;;;;;;;6.77;100.00;101233.13;20970594;28;20467;-66
2022/03/15 22:16:30;;;;;;;74.57;35.33;;;;;;;6.75;100.00;101245.22;20971711;28;20102;-67
2022/03/15 22:26:31;;;;;;;74.18;38.53;;;;;;;6.79;100.00;101248.75;20970264;28;20074;-66
2022/03/15 23:17:50;;;;;;;74.30;37.20;;;;;;;6.88;100.00;101272.31;21046889;27;20375;-79
2022/03/15 23:27:54;;;;;;;82.68;39.35;;;;;;;6.90;100.00;101271.50;20961965;28;20079;-77
2022/03/15 23:37:57;;;;;;;78.33;37.60;;;;;;;6.84;100.00;101263.56;20812829;28;20042;-77
2022/03/15 23:47:59;;;;;;;82.35;39.53;;;;;;;6.86;100.00;101248.88;20771965;28;20104;-77
2022/03/15 23:58:01;;;;;;;81.65;38.90;;;;;;;6.70;100.00;101257.31;20775302;28;20096;-80
